Decoded Metar for FJDG (DIEGO GARCIA ISLAND in DIEGO GARCIA ISLAND) (IATA:N/A) | Meteo·Mobile Aviation Weather
aviador You're here:

FJDG Decoded Metar

DIEGO GARCIA ISLAND in DIEGO GARCIA ISLAND
Report Time2020-01-19 05:55:00
UTC Time2020-01-19 06:49:24
Flight Rules vfr VFR
Wind320° at 13 kt
W.Decomp.*RWY 31: 12.4 kt HW 4.0 kt RCW
Visibility9000 m
Phenomena:Light Rain
Clouds:Scattered 019 Hf
Broken 045 Hf
Overcast 080 Hf
Expected CloudBase > 800 ft AGL from Temp-Dew spread
Ceiling4,500 ft
Temp27°C (ISA +12)
Dew Point25°C (89% RH)
Heat Index30.6°C
QNH1012 hPa
Density Alt1,844 ft
Elevation10 ft
Report Wrong Elevation
Raw Report
FJDG 190555Z 32013KT 9000 -RA SCT019 BKN045 OVC080 27/25 A2989 RMK
SLP119 P0011 60040 8/87/ T02690245 10273 20260 50000=

Extra information for FJDG:More info

Metar Taf Metar & Taf Last 4 Metars F.Rules Stats Wind Profile Meteogram Temp Stats Airport Information Weather charts Add Link Nearby VenuesMetar ALERT Operation Metar Decoded Social comments